Online Now
Guests 3
Members   0

24/7 FSX Server
IP: 97.89.8.204
@ KDFW until 12/1/17



Information and tools for flight simulation use only - NOT for real avaition

File Flight Plans Here

KDFW 250853Z 14005KT 10SM FEW180 SCT250 11/04 A2982 RMK AO2 SLP094 T01110044 53001
Aviation Digital Data Service (ADDS)



Other FSX servers